sensor_id;sensor_type;location;lat;lon;timestamp;P1;durP1;ratioP1;P2;durP2;ratioP2
36931;SDS011;22847;42.654;23.370;2022-09-14T00:01:35;3.47;;;3.03;;
36931;SDS011;22847;42.654;23.370;2022-09-14T00:04:05;3.08;;;2.78;;
36931;SDS011;22847;42.654;23.370;2022-09-14T00:06:32;3.25;;;2.85;;
36931;SDS011;22847;42.654;23.370;2022-09-14T00:08:59;5.80;;;3.03;;
36931;SDS011;22847;42.654;23.370;2022-09-14T00:11:26;4.75;;;3.05;;
36931;SDS011;22847;42.654;23.370;2022-09-14T00:13:53;4.50;;;3.47;;
36931;SDS011;22847;42.654;23.370;2022-09-14T00:16:22;8.32;;;3.05;;
36931;SDS011;22847;42.654;23.370;2022-09-14T00:18:50;4.43;;;2.95;;
36931;SDS011;22847;42.654;23.370;2022-09-14T00:21:17;2.90;;;2.70;;
36931;SDS011;22847;42.654;23.370;2022-09-14T00:23:43;2.97;;;2.67;;
36931;SDS011;22847;42.654;23.370;2022-09-14T00:26:09;11.43;;;3.20;;
36931;SDS011;22847;42.654;23.370;2022-09-14T00:28:41;3.47;;;3.10;;
36931;SDS011;22847;42.654;23.370;2022-09-14T00:31:08;5.30;;;3.53;;
36931;SDS011;22847;42.654;23.370;2022-09-14T00:33:34;7.10;;;2.92;;
36931;SDS011;22847;42.654;23.370;2022-09-14T00:36:05;5.05;;;3.72;;
36931;SDS011;22847;42.654;23.370;2022-09-14T00:41:02;6.03;;;3.05;;
36931;SDS011;22847;42.654;23.370;2022-09-14T00:43:29;4.22;;;3.05;;
36931;SDS011;22847;42.654;23.370;2022-09-14T00:45:54;5.93;;;2.92;;
36931;SDS011;22847;42.654;23.370;2022-09-14T00:48:21;9.85;;;3.40;;
36931;SDS011;22847;42.654;23.370;2022-09-14T00:50:49;6.65;;;3.30;;
36931;SDS011;22847;42.654;23.370;2022-09-14T00:53:15;4.88;;;3.05;;
36931;SDS011;22847;42.654;23.370;2022-09-14T00:55:41;5.38;;;3.42;;
36931;SDS011;22847;42.654;23.370;2022-09-14T00:58:06;7.72;;;3.22;;
36931;SDS011;22847;42.654;23.370;2022-09-14T01:00:32;4.05;;;3.22;;
36931;SDS011;22847;42.654;23.370;2022-09-14T01:02:58;5.85;;;3.08;;
36931;SDS011;22847;42.654;23.370;2022-09-14T01:05:34;3.78;;;3.13;;
36931;SDS011;22847;42.654;23.370;2022-09-14T01:10:47;5.93;;;3.08;;
36931;SDS011;22847;42.654;23.370;2022-09-14T01:22:22;3.33;;;2.72;;
36931;SDS011;22847;42.654;23.370;2022-09-14T01:24:54;5.90;;;2.88;;
36931;SDS011;22847;42.654;23.370;2022-09-14T01:27:33;3.10;;;2.80;;
36931;SDS011;22847;42.654;23.370;2022-09-14T01:32:55;3.35;;;2.67;;
36931;SDS011;22847;42.654;23.370;2022-09-14T01:35:27;3.30;;;2.85;;
36931;SDS011;22847;42.654;23.370;2022-09-14T01:37:58;3.95;;;3.20;;
36931;SDS011;22847;42.654;23.370;2022-09-14T01:40:40;6.35;;;2.97;;
36931;SDS011;22847;42.654;23.370;2022-09-14T01:43:17;3.30;;;3.00;;
36931;SDS011;22847;42.654;23.370;2022-09-14T01:45:48;5.30;;;3.28;;
36931;SDS011;22847;42.654;23.370;2022-09-14T01:48:18;3.60;;;3.10;;
36931;SDS011;22847;42.654;23.370;2022-09-14T01:50:52;5.35;;;3.30;;
36931;SDS011;22847;42.654;23.370;2022-09-14T01:53:41;4.97;;;3.13;;
36931;SDS011;22847;42.654;23.370;2022-09-14T01:58:59;4.88;;;3.10;;
36931;SDS011;22847;42.654;23.370;2022-09-14T02:01:40;3.50;;;3.10;;
36931;SDS011;22847;42.654;23.370;2022-09-14T02:07:18;4.78;;;3.20;;
36931;SDS011;22847;42.654;23.370;2022-09-14T02:09:45;5.20;;;3.60;;
36931;SDS011;22847;42.654;23.370;2022-09-14T02:12:12;4.60;;;3.28;;
36931;SDS011;22847;42.654;23.370;2022-09-14T02:14:38;4.05;;;2.97;;
36931;SDS011;22847;42.654;23.370;2022-09-14T02:17:04;5.18;;;3.28;;
36931;SDS011;22847;42.654;23.370;2022-09-14T02:19:33;4.10;;;3.13;;
36931;SDS011;22847;42.654;23.370;2022-09-14T02:22:06;3.83;;;3.20;;
36931;SDS011;22847;42.654;23.370;2022-09-14T02:24:31;5.22;;;3.33;;
36931;SDS011;22847;42.654;23.370;2022-09-14T02:26:57;3.40;;;3.10;;
36931;SDS011;22847;42.654;23.370;2022-09-14T02:29:23;6.97;;;3.13;;
36931;SDS011;22847;42.654;23.370;2022-09-14T02:50:51;6.65;;;3.47;;
36931;SDS011;22847;42.654;23.370;2022-09-14T02:56:06;4.63;;;3.53;;
36931;SDS011;22847;42.654;23.370;2022-09-14T02:58:34;8.13;;;3.33;;
36931;SDS011;22847;42.654;23.370;2022-09-14T03:01:02;5.97;;;3.30;;
36931;SDS011;22847;42.654;23.370;2022-09-14T03:03:28;6.40;;;3.03;;
36931;SDS011;22847;42.654;23.370;2022-09-14T03:05:54;6.55;;;3.55;;
36931;SDS011;22847;42.654;23.370;2022-09-14T03:08:21;4.75;;;3.10;;
36931;SDS011;22847;42.654;23.370;2022-09-14T03:10:47;3.78;;;3.17;;
36931;SDS011;22847;42.654;23.370;2022-09-14T03:13:12;4.57;;;3.60;;
36931;SDS011;22847;42.654;23.370;2022-09-14T03:15:37;4.10;;;2.80;;
36931;SDS011;22847;42.654;23.370;2022-09-14T03:18:04;4.65;;;3.28;;
36931;SDS011;22847;42.654;23.370;2022-09-14T03:20:31;6.35;;;3.70;;
36931;SDS011;22847;42.654;23.370;2022-09-14T03:22:58;6.43;;;3.22;;
36931;SDS011;22847;42.654;23.370;2022-09-14T03:25:24;4.63;;;3.35;;
36931;SDS011;22847;42.654;23.370;2022-09-14T03:27:50;7.15;;;4.88;;
36931;SDS011;22847;42.654;23.370;2022-09-14T03:30:17;10.82;;;5.93;;
36931;SDS011;22847;42.654;23.370;2022-09-14T03:32:44;6.80;;;3.80;;
36931;SDS011;22847;42.654;23.370;2022-09-14T03:35:10;17.02;;;7.20;;
36931;SDS011;22847;42.654;23.370;2022-09-14T03:37:37;6.97;;;4.57;;
36931;SDS011;22847;42.654;23.370;2022-09-14T03:40:03;6.47;;;4.70;;
36931;SDS011;22847;42.654;23.370;2022-09-14T03:42:29;10.82;;;7.00;;
36931;SDS011;22847;42.654;23.370;2022-09-14T03:44:55;17.13;;;10.90;;
36931;SDS011;22847;42.654;23.370;2022-09-14T03:47:20;12.88;;;8.73;;
36931;SDS011;22847;42.654;23.370;2022-09-14T03:49:46;5.93;;;4.35;;
36931;SDS011;22847;42.654;23.370;2022-09-14T03:52:11;10.30;;;6.15;;
36931;SDS011;22847;42.654;23.370;2022-09-14T03:54:36;6.40;;;3.60;;
36931;SDS011;22847;42.654;23.370;2022-09-14T03:57:02;7.50;;;3.60;;
36931;SDS011;22847;42.654;23.370;2022-09-14T03:59:27;4.57;;;3.47;;
36931;SDS011;22847;42.654;23.370;2022-09-14T04:01:53;11.45;;;4.45;;
36931;SDS011;22847;42.654;23.370;2022-09-14T04:04:18;11.52;;;3.83;;
36931;SDS011;22847;42.654;23.370;2022-09-14T04:06:44;7.25;;;3.35;;
36931;SDS011;22847;42.654;23.370;2022-09-14T04:09:09;10.95;;;3.80;;
36931;SDS011;22847;42.654;23.370;2022-09-14T04:11:35;9.05;;;3.03;;
36931;SDS011;22847;42.654;23.370;2022-09-14T04:14:01;5.45;;;3.33;;
36931;SDS011;22847;42.654;23.370;2022-09-14T04:16:28;8.57;;;4.15;;
36931;SDS011;22847;42.654;23.370;2022-09-14T04:18:53;7.40;;;4.25;;
36931;SDS011;22847;42.654;23.370;2022-09-14T04:21:20;7.47;;;5.28;;
36931;SDS011;22847;42.654;23.370;2022-09-14T04:23:50;13.02;;;6.38;;
36931;SDS011;22847;42.654;23.370;2022-09-14T04:26:18;5.43;;;4.32;;
36931;SDS011;22847;42.654;23.370;2022-09-14T04:28:44;6.78;;;4.03;;
36931;SDS011;22847;42.654;23.370;2022-09-14T04:31:10;6.05;;;4.05;;
36931;SDS011;22847;42.654;23.370;2022-09-14T04:33:36;15.02;;;4.38;;
36931;SDS011;22847;42.654;23.370;2022-09-14T04:36:06;5.95;;;4.25;;
36931;SDS011;22847;42.654;23.370;2022-09-14T04:38:33;7.95;;;3.38;;
36931;SDS011;22847;42.654;23.370;2022-09-14T04:41:03;4.82;;;3.58;;
36931;SDS011;22847;42.654;23.370;2022-09-14T04:43:30;6.50;;;4.07;;
36931;SDS011;22847;42.654;23.370;2022-09-14T04:46:00;6.10;;;3.83;;
36931;SDS011;22847;42.654;23.370;2022-09-14T04:48:26;8.98;;;3.70;;
36931;SDS011;22847;42.654;23.370;2022-09-14T04:50:52;12.15;;;3.85;;
36931;SDS011;22847;42.654;23.370;2022-09-14T04:53:17;4.85;;;3.60;;
36931;SDS011;22847;42.654;23.370;2022-09-14T04:55:43;5.25;;;3.78;;
36931;SDS011;22847;42.654;23.370;2022-09-14T04:58:08;5.40;;;3.50;;
36931;SDS011;22847;42.654;23.370;2022-09-14T05:00:34;7.53;;;4.13;;
36931;SDS011;22847;42.654;23.370;2022-09-14T05:03:01;9.73;;;4.35;;
36931;SDS011;22847;42.654;23.370;2022-09-14T05:05:28;9.93;;;3.40;;
36931;SDS011;22847;42.654;23.370;2022-09-14T05:07:53;8.73;;;5.88;;
36931;SDS011;22847;42.654;23.370;2022-09-14T05:10:19;4.75;;;3.30;;
36931;SDS011;22847;42.654;23.370;2022-09-14T05:12:44;13.02;;;4.80;;
36931;SDS011;22847;42.654;23.370;2022-09-14T05:15:10;10.75;;;4.63;;
36931;SDS011;22847;42.654;23.370;2022-09-14T05:17:35;8.98;;;4.00;;
36931;SDS011;22847;42.654;23.370;2022-09-14T05:20:01;10.55;;;3.80;;
36931;SDS011;22847;42.654;23.370;2022-09-14T05:22:27;8.80;;;3.80;;
36931;SDS011;22847;42.654;23.370;2022-09-14T05:24:53;12.25;;;4.72;;
36931;SDS011;22847;42.654;23.370;2022-09-14T05:27:18;8.35;;;3.90;;
36931;SDS011;22847;42.654;23.370;2022-09-14T05:29:44;8.13;;;4.30;;
36931;SDS011;22847;42.654;23.370;2022-09-14T05:32:09;9.93;;;5.40;;
36931;SDS011;22847;42.654;23.370;2022-09-14T05:34:34;12.68;;;6.00;;
36931;SDS011;22847;42.654;23.370;2022-09-14T05:37:00;12.10;;;6.40;;
36931;SDS011;22847;42.654;23.370;2022-09-14T05:39:26;11.35;;;7.25;;
36931;SDS011;22847;42.654;23.370;2022-09-14T05:41:51;12.85;;;6.22;;
36931;SDS011;22847;42.654;23.370;2022-09-14T05:44:17;12.10;;;6.45;;
36931;SDS011;22847;42.654;23.370;2022-09-14T05:46:42;16.27;;;6.43;;
36931;SDS011;22847;42.654;23.370;2022-09-14T05:49:08;16.33;;;6.45;;
36931;SDS011;22847;42.654;23.370;2022-09-14T05:51:33;14.82;;;7.15;;
36931;SDS011;22847;42.654;23.370;2022-09-14T05:53:58;14.40;;;7.00;;
36931;SDS011;22847;42.654;23.370;2022-09-14T05:56:28;15.70;;;6.90;;
36931;SDS011;22847;42.654;23.370;2022-09-14T05:58:55;17.38;;;9.68;;
36931;SDS011;22847;42.654;23.370;2022-09-14T06:01:23;22.33;;;10.27;;
36931;SDS011;22847;42.654;23.370;2022-09-14T06:03:53;22.10;;;8.52;;
36931;SDS011;22847;42.654;23.370;2022-09-14T06:06:21;15.77;;;7.57;;
36931;SDS011;22847;42.654;23.370;2022-09-14T06:08:47;18.40;;;7.80;;
36931;SDS011;22847;42.654;23.370;2022-09-14T06:11:19;10.75;;;5.82;;
36931;SDS011;22847;42.654;23.370;2022-09-14T06:13:46;11.48;;;6.03;;
36931;SDS011;22847;42.654;23.370;2022-09-14T06:16:14;7.30;;;3.90;;
36931;SDS011;22847;42.654;23.370;2022-09-14T06:18:42;7.55;;;4.47;;
36931;SDS011;22847;42.654;23.370;2022-09-14T06:21:09;7.03;;;4.38;;
36931;SDS011;22847;42.654;23.370;2022-09-14T06:23:36;11.27;;;4.45;;
36931;SDS011;22847;42.654;23.370;2022-09-14T06:26:03;10.25;;;4.75;;
36931;SDS011;22847;42.654;23.370;2022-09-14T06:28:29;9.23;;;4.90;;
36931;SDS011;22847;42.654;23.370;2022-09-14T06:30:55;10.07;;;5.28;;
36931;SDS011;22847;42.654;23.370;2022-09-14T06:33:22;9.10;;;4.93;;
36931;SDS011;22847;42.654;23.370;2022-09-14T06:35:57;13.82;;;5.53;;
36931;SDS011;22847;42.654;23.370;2022-09-14T06:38:25;11.10;;;5.05;;
36931;SDS011;22847;42.654;23.370;2022-09-14T06:43:21;9.85;;;4.28;;
36931;SDS011;22847;42.654;23.370;2022-09-14T06:45:58;9.20;;;5.47;;
36931;SDS011;22847;42.654;23.370;2022-09-14T06:48:26;9.48;;;4.60;;
36931;SDS011;22847;42.654;23.370;2022-09-14T06:50:53;8.90;;;4.53;;
36931;SDS011;22847;42.654;23.370;2022-09-14T06:53:18;16.30;;;4.45;;
36931;SDS011;22847;42.654;23.370;2022-09-14T06:55:44;11.73;;;5.13;;
36931;SDS011;22847;42.654;23.370;2022-09-14T06:58:10;13.75;;;6.80;;
36931;SDS011;22847;42.654;23.370;2022-09-14T07:00:36;18.58;;;5.07;;
36931;SDS011;22847;42.654;23.370;2022-09-14T07:03:01;8.93;;;5.18;;
36931;SDS011;22847;42.654;23.370;2022-09-14T07:05:27;12.70;;;5.40;;
36931;SDS011;22847;42.654;23.370;2022-09-14T07:07:53;13.10;;;5.25;;
36931;SDS011;22847;42.654;23.370;2022-09-14T07:10:18;13.95;;;5.25;;
36931;SDS011;22847;42.654;23.370;2022-09-14T07:12:44;12.40;;;4.35;;
36931;SDS011;22847;42.654;23.370;2022-09-14T07:15:09;8.93;;;4.80;;
36931;SDS011;22847;42.654;23.370;2022-09-14T07:17:35;9.77;;;4.60;;
36931;SDS011;22847;42.654;23.370;2022-09-14T07:20:03;7.60;;;4.40;;
36931;SDS011;22847;42.654;23.370;2022-09-14T07:22:33;10.98;;;6.03;;
36931;SDS011;22847;42.654;23.370;2022-09-14T07:24:59;9.27;;;3.78;;
36931;SDS011;22847;42.654;23.370;2022-09-14T07:27:24;4.28;;;3.85;;
36931;SDS011;22847;42.654;23.370;2022-09-14T07:29:50;8.65;;;3.47;;
36931;SDS011;22847;42.654;23.370;2022-09-14T07:32:15;11.43;;;4.07;;
36931;SDS011;22847;42.654;23.370;2022-09-14T07:34:41;5.90;;;4.20;;
36931;SDS011;22847;42.654;23.370;2022-09-14T07:37:06;12.05;;;4.55;;
36931;SDS011;22847;42.654;23.370;2022-09-14T07:39:32;8.60;;;3.63;;
36931;SDS011;22847;42.654;23.370;2022-09-14T07:41:57;9.60;;;4.05;;
36931;SDS011;22847;42.654;23.370;2022-09-14T07:44:23;8.25;;;3.95;;
36931;SDS011;22847;42.654;23.370;2022-09-14T07:46:48;11.18;;;4.10;;
36931;SDS011;22847;42.654;23.370;2022-09-14T07:49:14;11.13;;;4.38;;
36931;SDS011;22847;42.654;23.370;2022-09-14T07:51:41;9.32;;;5.10;;
36931;SDS011;22847;42.654;23.370;2022-09-14T07:54:07;12.23;;;4.85;;
36931;SDS011;22847;42.654;23.370;2022-09-14T07:56:35;10.48;;;4.47;;
36931;SDS011;22847;42.654;23.370;2022-09-14T07:59:01;13.52;;;4.88;;
36931;SDS011;22847;42.654;23.370;2022-09-14T08:01:28;10.02;;;4.57;;
36931;SDS011;22847;42.654;23.370;2022-09-14T08:03:54;12.73;;;4.57;;
36931;SDS011;22847;42.654;23.370;2022-09-14T08:06:21;11.23;;;4.65;;
36931;SDS011;22847;42.654;23.370;2022-09-14T08:08:49;11.73;;;4.35;;
36931;SDS011;22847;42.654;23.370;2022-09-14T08:13:47;13.82;;;4.18;;
36931;SDS011;22847;42.654;23.370;2022-09-14T08:16:14;9.07;;;4.25;;
36931;SDS011;22847;42.654;23.370;2022-09-14T08:18:42;15.23;;;4.30;;
36931;SDS011;22847;42.654;23.370;2022-09-14T08:21:08;8.27;;;3.97;;
36931;SDS011;22847;42.654;23.370;2022-09-14T08:23:36;11.32;;;4.50;;
36931;SDS011;22847;42.654;23.370;2022-09-14T08:26:03;7.65;;;4.07;;
36931;SDS011;22847;42.654;23.370;2022-09-14T08:28:29;11.73;;;4.85;;
36931;SDS011;22847;42.654;23.370;2022-09-14T08:30:54;8.23;;;3.88;;
36931;SDS011;22847;42.654;23.370;2022-09-14T08:33:20;10.13;;;4.07;;
36931;SDS011;22847;42.654;23.370;2022-09-14T08:35:45;10.52;;;4.32;;
36931;SDS011;22847;42.654;23.370;2022-09-14T08:38:11;12.35;;;4.57;;
36931;SDS011;22847;42.654;23.370;2022-09-14T08:40:43;9.52;;;4.25;;
36931;SDS011;22847;42.654;23.370;2022-09-14T08:43:10;14.77;;;4.17;;
36931;SDS011;22847;42.654;23.370;2022-09-14T08:45:39;7.20;;;3.65;;
36931;SDS011;22847;42.654;23.370;2022-09-14T08:48:09;8.15;;;4.03;;
36931;SDS011;22847;42.654;23.370;2022-09-14T08:50:44;11.63;;;4.85;;
36931;SDS011;22847;42.654;23.370;2022-09-14T08:53:09;11.30;;;4.47;;
36931;SDS011;22847;42.654;23.370;2022-09-14T08:55:40;16.20;;;4.72;;
36931;SDS011;22847;42.654;23.370;2022-09-14T09:00:43;8.95;;;4.60;;
36931;SDS011;22847;42.654;23.370;2022-09-14T09:14:49;7.93;;;3.80;;
36931;SDS011;22847;42.654;23.370;2022-09-14T09:20:31;7.55;;;3.22;;
36931;SDS011;22847;42.654;23.370;2022-09-14T09:22:42;9.00;;;3.60;;
36931;SDS011;22847;42.654;23.370;2022-09-14T09:25:19;6.93;;;3.42;;
36931;SDS011;22847;42.654;23.370;2022-09-14T09:27:48;8.38;;;3.85;;
36931;SDS011;22847;42.654;23.370;2022-09-14T09:30:33;8.48;;;3.72;;
36931;SDS011;22847;42.654;23.370;2022-09-14T09:32:59;6.88;;;3.22;;
36931;SDS011;22847;42.654;23.370;2022-09-14T09:35:24;6.40;;;3.30;;
36931;SDS011;22847;42.654;23.370;2022-09-14T09:37:50;8.25;;;3.60;;
36931;SDS011;22847;42.654;23.370;2022-09-14T09:40:16;6.28;;;3.05;;
36931;SDS011;22847;42.654;23.370;2022-09-14T09:43:03;6.70;;;3.67;;
36931;SDS011;22847;42.654;23.370;2022-09-14T09:45:44;7.57;;;4.20;;
36931;SDS011;22847;42.654;23.370;2022-09-14T09:48:41;7.85;;;4.05;;
36931;SDS011;22847;42.654;23.370;2022-09-14T09:51:15;10.60;;;3.80;;
36931;SDS011;22847;42.654;23.370;2022-09-14T09:53:52;6.85;;;4.03;;
36931;SDS011;22847;42.654;23.370;2022-09-14T09:56:22;8.77;;;3.75;;
36931;SDS011;22847;42.654;23.370;2022-09-14T09:58:49;11.05;;;4.20;;
36931;SDS011;22847;42.654;23.370;2022-09-14T10:01:36;6.97;;;4.07;;
36931;SDS011;22847;42.654;23.370;2022-09-14T10:06:39;6.53;;;3.85;;
36931;SDS011;22847;42.654;23.370;2022-09-14T10:09:13;11.20;;;3.92;;
36931;SDS011;22847;42.654;23.370;2022-09-14T10:11:41;8.63;;;4.13;;
36931;SDS011;22847;42.654;23.370;2022-09-14T10:24:55;5.85;;;3.17;;
36931;SDS011;22847;42.654;23.370;2022-09-14T10:27:38;6.90;;;3.17;;
36931;SDS011;22847;42.654;23.370;2022-09-14T10:30:04;8.40;;;3.40;;
36931;SDS011;22847;42.654;23.370;2022-09-14T10:32:34;6.60;;;3.55;;
36931;SDS011;22847;42.654;23.370;2022-09-14T10:35:04;9.90;;;3.20;;
36931;SDS011;22847;42.654;23.370;2022-09-14T10:38:38;10.18;;;2.70;;
36931;SDS011;22847;42.654;23.370;2022-09-14T10:40:51;6.65;;;3.40;;
36931;SDS011;22847;42.654;23.370;2022-09-14T10:47:06;10.27;;;3.60;;
36931;SDS011;22847;42.654;23.370;2022-09-14T10:55:20;8.45;;;4.10;;
36931;SDS011;22847;42.654;23.370;2022-09-14T11:03:34;8.55;;;3.40;;
36931;SDS011;22847;42.654;23.370;2022-09-14T11:09:09;8.02;;;3.35;;
36931;SDS011;22847;42.654;23.370;2022-09-14T11:12:11;7.35;;;4.38;;
36931;SDS011;22847;42.654;23.370;2022-09-14T11:20:32;5.35;;;3.13;;
36931;SDS011;22847;42.654;23.370;2022-09-14T11:31:04;16.05;;;3.80;;
36931;SDS011;22847;42.654;23.370;2022-09-14T11:33:52;5.53;;;3.10;;
36931;SDS011;22847;42.654;23.370;2022-09-14T11:38:55;11.15;;;3.63;;
36931;SDS011;22847;42.654;23.370;2022-09-14T11:41:30;8.73;;;2.72;;
36931;SDS011;22847;42.654;23.370;2022-09-14T11:47:21;3.15;;;2.15;;
36931;SDS011;22847;42.654;23.370;2022-09-14T11:52:22;4.82;;;1.73;;
36931;SDS011;22847;42.654;23.370;2022-09-14T11:54:50;2.97;;;2.00;;
36931;SDS011;22847;42.654;23.370;2022-09-14T11:57:17;6.50;;;1.45;;
36931;SDS011;22847;42.654;23.370;2022-09-14T11:59:56;4.72;;;1.50;;
36931;SDS011;22847;42.654;23.370;2022-09-14T12:15:34;2.85;;;1.60;;
36931;SDS011;22847;42.654;23.370;2022-09-14T12:35:57;5.30;;;1.73;;
36931;SDS011;22847;42.654;23.370;2022-09-14T12:59:11;2.40;;;1.48;;
36931;SDS011;22847;42.654;23.370;2022-09-14T13:04:52;3.78;;;1.70;;
36931;SDS011;22847;42.654;23.370;2022-09-14T13:07:21;3.10;;;1.70;;
36931;SDS011;22847;42.654;23.370;2022-09-14T13:09:49;10.02;;;2.55;;
36931;SDS011;22847;42.654;23.370;2022-09-14T13:12:29;5.60;;;1.98;;
36931;SDS011;22847;42.654;23.370;2022-09-14T13:17:57;2.25;;;1.35;;
36931;SDS011;22847;42.654;23.370;2022-09-14T13:20:24;4.75;;;1.50;;
36931;SDS011;22847;42.654;23.370;2022-09-14T13:22:50;9.00;;;1.92;;
36931;SDS011;22847;42.654;23.370;2022-09-14T13:25:30;3.17;;;1.40;;
36931;SDS011;22847;42.654;23.370;2022-09-14T13:28:06;1.73;;;1.42;;
36931;SDS011;22847;42.654;23.370;2022-09-14T13:30:39;3.13;;;1.50;;
36931;SDS011;22847;42.654;23.370;2022-09-14T13:33:15;2.13;;;1.35;;
36931;SDS011;22847;42.654;23.370;2022-09-14T13:38:41;4.82;;;1.73;;
36931;SDS011;22847;42.654;23.370;2022-09-14T13:41:08;3.42;;;1.55;;
36931;SDS011;22847;42.654;23.370;2022-09-14T13:43:36;3.17;;;1.67;;
36931;SDS011;22847;42.654;23.370;2022-09-14T13:46:03;3.63;;;1.63;;
36931;SDS011;22847;42.654;23.370;2022-09-14T13:48:32;4.70;;;2.40;;
36931;SDS011;22847;42.654;23.370;2022-09-14T13:50:59;5.55;;;1.80;;
36931;SDS011;22847;42.654;23.370;2022-09-14T13:58:45;8.30;;;2.78;;
36931;SDS011;22847;42.654;23.370;2022-09-14T14:01:13;4.15;;;2.30;;
36931;SDS011;22847;42.654;23.370;2022-09-14T14:03:48;3.90;;;1.67;;
36931;SDS011;22847;42.654;23.370;2022-09-14T14:08:54;2.90;;;1.70;;
36931;SDS011;22847;42.654;23.370;2022-09-14T14:19:37;3.60;;;1.80;;
36931;SDS011;22847;42.654;23.370;2022-09-14T14:24:39;4.00;;;2.90;;
36931;SDS011;22847;42.654;23.370;2022-09-14T14:27:17;5.20;;;2.35;;
36931;SDS011;22847;42.654;23.370;2022-09-14T14:29:55;4.80;;;2.10;;
36931;SDS011;22847;42.654;23.370;2022-09-14T14:32:21;4.70;;;3.60;;
36931;SDS011;22847;42.654;23.370;2022-09-14T14:34:47;5.53;;;2.05;;
36931;SDS011;22847;42.654;23.370;2022-09-14T14:37:13;8.13;;;3.75;;
36931;SDS011;22847;42.654;23.370;2022-09-14T14:39:38;6.20;;;2.95;;
36931;SDS011;22847;42.654;23.370;2022-09-14T14:42:04;7.38;;;4.10;;
36931;SDS011;22847;42.654;23.370;2022-09-14T14:44:31;4.18;;;3.42;;
36931;SDS011;22847;42.654;23.370;2022-09-14T14:46:58;6.70;;;2.67;;
36931;SDS011;22847;42.654;23.370;2022-09-14T14:49:23;5.55;;;2.15;;
36931;SDS011;22847;42.654;23.370;2022-09-14T14:51:49;10.70;;;5.20;;
36931;SDS011;22847;42.654;23.370;2022-09-14T14:54:15;6.65;;;2.72;;
36931;SDS011;22847;42.654;23.370;2022-09-14T14:56:46;7.60;;;3.30;;
36931;SDS011;22847;42.654;23.370;2022-09-14T15:01:44;4.43;;;2.38;;
36931;SDS011;22847;42.654;23.370;2022-09-14T15:04:10;3.95;;;2.83;;
36931;SDS011;22847;42.654;23.370;2022-09-14T15:06:35;4.80;;;2.88;;
36931;SDS011;22847;42.654;23.370;2022-09-14T15:09:01;4.57;;;3.22;;
36931;SDS011;22847;42.654;23.370;2022-09-14T15:11:30;2.47;;;1.73;;
36931;SDS011;22847;42.654;23.370;2022-09-14T15:13:55;3.60;;;2.25;;
36931;SDS011;22847;42.654;23.370;2022-09-14T15:16:21;8.55;;;4.55;;
36931;SDS011;22847;42.654;23.370;2022-09-14T15:18:46;6.03;;;2.35;;
36931;SDS011;22847;42.654;23.370;2022-09-14T15:21:12;8.15;;;3.38;;
36931;SDS011;22847;42.654;23.370;2022-09-14T15:23:37;10.90;;;5.78;;
36931;SDS011;22847;42.654;23.370;2022-09-14T15:26:04;14.60;;;6.03;;
36931;SDS011;22847;42.654;23.370;2022-09-14T15:28:29;15.60;;;10.02;;
36931;SDS011;22847;42.654;23.370;2022-09-14T15:30:55;9.05;;;4.53;;
36931;SDS011;22847;42.654;23.370;2022-09-14T15:33:21;9.20;;;2.85;;
36931;SDS011;22847;42.654;23.370;2022-09-14T15:35:52;11.68;;;3.75;;
36931;SDS011;22847;42.654;23.370;2022-09-14T15:38:19;7.65;;;2.80;;
36931;SDS011;22847;42.654;23.370;2022-09-14T15:40:45;6.50;;;3.03;;
36931;SDS011;22847;42.654;23.370;2022-09-14T15:43:10;7.57;;;3.53;;
36931;SDS011;22847;42.654;23.370;2022-09-14T15:45:35;5.65;;;2.45;;
36931;SDS011;22847;42.654;23.370;2022-09-14T15:48:01;7.32;;;3.40;;
36931;SDS011;22847;42.654;23.370;2022-09-14T15:50:26;3.08;;;2.03;;
36931;SDS011;22847;42.654;23.370;2022-09-14T15:52:52;6.43;;;2.00;;
36931;SDS011;22847;42.654;23.370;2022-09-14T15:55:17;6.43;;;2.20;;
36931;SDS011;22847;42.654;23.370;2022-09-14T15:57:43;3.50;;;2.28;;
36931;SDS011;22847;42.654;23.370;2022-09-14T16:00:09;11.00;;;2.53;;
36931;SDS011;22847;42.654;23.370;2022-09-14T16:02:37;2.38;;;1.90;;
36931;SDS011;22847;42.654;23.370;2022-09-14T16:05:02;7.03;;;3.67;;
36931;SDS011;22847;42.654;23.370;2022-09-14T16:07:28;7.05;;;2.80;;
36931;SDS011;22847;42.654;23.370;2022-09-14T16:09:53;5.80;;;3.08;;
36931;SDS011;22847;42.654;23.370;2022-09-14T16:12:19;12.30;;;3.00;;
36931;SDS011;22847;42.654;23.370;2022-09-14T16:14:44;5.45;;;3.00;;
36931;SDS011;22847;42.654;23.370;2022-09-14T16:17:10;9.55;;;5.25;;
36931;SDS011;22847;42.654;23.370;2022-09-14T16:19:35;12.82;;;5.65;;
36931;SDS011;22847;42.654;23.370;2022-09-14T16:22:01;7.88;;;2.80;;
36931;SDS011;22847;42.654;23.370;2022-09-14T16:24:27;12.27;;;4.40;;
36931;SDS011;22847;42.654;23.370;2022-09-14T16:26:53;9.73;;;3.88;;
36931;SDS011;22847;42.654;23.370;2022-09-14T16:29:19;11.52;;;3.17;;
36931;SDS011;22847;42.654;23.370;2022-09-14T16:31:48;5.25;;;2.38;;
36931;SDS011;22847;42.654;23.370;2022-09-14T16:36:46;7.80;;;3.38;;
36931;SDS011;22847;42.654;23.370;2022-09-14T16:39:13;7.28;;;2.80;;
36931;SDS011;22847;42.654;23.370;2022-09-14T16:41:40;6.90;;;2.95;;
36931;SDS011;22847;42.654;23.370;2022-09-14T16:44:08;14.05;;;3.15;;
36931;SDS011;22847;42.654;23.370;2022-09-14T16:46:36;6.57;;;2.28;;
36931;SDS011;22847;42.654;23.370;2022-09-14T16:49:02;7.70;;;2.47;;
36931;SDS011;22847;42.654;23.370;2022-09-14T16:51:29;10.60;;;3.50;;
36931;SDS011;22847;42.654;23.370;2022-09-14T16:53:55;10.30;;;3.10;;
36931;SDS011;22847;42.654;23.370;2022-09-14T16:56:23;9.43;;;3.95;;
36931;SDS011;22847;42.654;23.370;2022-09-14T16:58:51;12.65;;;5.43;;
36931;SDS011;22847;42.654;23.370;2022-09-14T17:03:45;15.15;;;4.22;;
36931;SDS011;22847;42.654;23.370;2022-09-14T17:06:13;9.93;;;4.93;;
36931;SDS011;22847;42.654;23.370;2022-09-14T17:08:40;7.50;;;4.20;;
36931;SDS011;22847;42.654;23.370;2022-09-14T17:11:07;16.13;;;6.47;;
36931;SDS011;22847;42.654;23.370;2022-09-14T17:13:33;17.42;;;8.88;;
36931;SDS011;22847;42.654;23.370;2022-09-14T17:15:59;12.07;;;4.78;;
36931;SDS011;22847;42.654;23.370;2022-09-14T17:18:31;8.52;;;4.35;;
36931;SDS011;22847;42.654;23.370;2022-09-14T17:21:02;9.63;;;3.80;;
36931;SDS011;22847;42.654;23.370;2022-09-14T17:23:30;8.50;;;3.97;;
36931;SDS011;22847;42.654;23.370;2022-09-14T17:25:55;10.18;;;5.07;;
36931;SDS011;22847;42.654;23.370;2022-09-14T17:28:22;9.73;;;5.43;;
36931;SDS011;22847;42.654;23.370;2022-09-14T17:30:50;13.77;;;6.43;;
36931;SDS011;22847;42.654;23.370;2022-09-14T17:33:20;14.00;;;6.45;;
36931;SDS011;22847;42.654;23.370;2022-09-14T17:35:46;13.00;;;6.15;;
36931;SDS011;22847;42.654;23.370;2022-09-14T17:38:13;13.23;;;5.03;;
36931;SDS011;22847;42.654;23.370;2022-09-14T17:40:39;12.25;;;5.68;;
36931;SDS011;22847;42.654;23.370;2022-09-14T17:43:05;17.58;;;5.32;;
36931;SDS011;22847;42.654;23.370;2022-09-14T17:45:31;11.23;;;4.88;;
36931;SDS011;22847;42.654;23.370;2022-09-14T17:47:56;14.52;;;4.28;;
36931;SDS011;22847;42.654;23.370;2022-09-14T17:50:22;10.30;;;4.75;;
36931;SDS011;22847;42.654;23.370;2022-09-14T17:52:47;9.02;;;4.60;;
36931;SDS011;22847;42.654;23.370;2022-09-14T17:55:14;5.57;;;3.67;;
36931;SDS011;22847;42.654;23.370;2022-09-14T17:57:39;9.35;;;4.10;;
36931;SDS011;22847;42.654;23.370;2022-09-14T18:00:05;7.78;;;3.10;;
36931;SDS011;22847;42.654;23.370;2022-09-14T18:02:32;7.78;;;3.10;;
36931;SDS011;22847;42.654;23.370;2022-09-14T18:04:57;5.80;;;2.70;;